Time,TemperatureF,DewpointF,PressureIn,WindDirection,WindDirectionDegrees,WindSpeedMPH,WindSpeedGustMPH,Humidity,HourlyPrecipIn,Conditions,Clouds,dailyrainin,SoftwareType,DateUTC
2013-01-14 00:08:00,49.8,43.0,30.21,WNW,283,1.0,3.0,76,0.00,,,0.00,weatherlink.com 1.10,2013-01-13 22:08:00,
2013-01-14 00:23:00,50.4,42.0,30.21,NW,306,1.0,3.0,74,0.00,,,0.00,weatherlink.com 1.10,2013-01-13 22:23:00,
2013-01-14 00:39:00,50.2,42.0,30.21,NNW,331,1.0,3.0,74,0.00,,,0.00,weatherlink.com 1.10,2013-01-13 22:39:00,
2013-01-14 00:54:00,49.2,42.0,30.22,NNW,328,0.0,1.0,77,0.00,,,0.00,weatherlink.com 1.10,2013-01-13 22:54:00,
2013-01-14 01:09:00,48.3,42.0,30.22,NNW,328,0.0,0.0,79,0.00,,,0.00,weatherlink.com 1.10,2013-01-13 23:09:00,
2013-01-14 01:24:00,48.5,42.0,30.22,NNW,328,0.0,0.0,79,0.00,,,0.00,weatherlink.com 1.10,2013-01-13 23:24:00,
2013-01-14 01:39:00,48.7,42.0,30.22,NNW,328,0.0,0.0,78,0.00,,,0.00,weatherlink.com 1.10,2013-01-13 23:39:00,
2013-01-14 01:54:00,48.7,42.0,30.22,NW,319,0.0,2.0,78,0.00,,,0.00,weatherlink.com 1.10,2013-01-13 23:54:00,
2013-01-14 02:09:00,48.9,43.0,30.23,NW,322,0.0,2.0,79,0.00,,,0.00,weatherlink.com 1.10,2013-01-14 00:09:00,
2013-01-14 02:24:00,49.7,43.0,30.22,North,350,0.0,3.0,77,0.00,,,0.00,weatherlink.com 1.10,2013-01-14 00:24:00,
2013-01-14 02:39:00,49.7,43.0,30.22,North,350,0.0,3.0,78,0.00,,,0.00,weatherlink.com 1.10,2013-01-14 00:39:00,
2013-01-14 02:54:00,49.5,43.0,30.22,North,350,1.0,3.0,78,0.00,,,0.00,weatherlink.com 1.10,2013-01-14 00:54:00,
2013-01-14 03:09:00,48.6,43.0,30.22,North,350,0.0,2.0,80,0.00,,,0.00,weatherlink.com 1.10,2013-01-14 01:09:00,
2013-01-14 03:24:00,48.8,43.0,30.22,North,350,1.0,2.0,80,0.00,,,0.00,weatherlink.com 1.10,2013-01-14 01:24:00,
2013-01-14 03:39:00,49.0,43.0,30.22,North,350,1.0,3.0,80,0.00,,,0.00,weatherlink.com 1.10,2013-01-14 01:39:00,
2013-01-14 03:54:00,48.9,43.0,30.22,North,350,0.0,0.0,81,0.00,,,0.00,weatherlink.com 1.10,2013-01-14 01:54:00,
2013-01-14 04:09:00,49.0,43.0,30.22,North,350,0.0,2.0,81,0.00,,,0.00,weatherlink.com 1.10,2013-01-14 02:09:00,
2013-01-14 04:24:00,49.5,44.0,30.22,North,350,0.0,2.0,80,0.00,,,0.00,weatherlink.com 1.10,2013-01-14 02:24:00,
2013-01-14 04:39:00,50.1,44.0,30.22,North,350,0.0,0.0,79,0.00,,,0.00,weatherlink.com 1.10,2013-01-14 02:39:00,
2013-01-14 04:54:00,50.5,44.0,30.22,North,350,0.0,2.0,77,0.00,,,0.00,weatherlink.com 1.10,2013-01-14 02:54:00,
2013-01-14 05:09:00,51.5,44.0,30.22,North,350,0.0,2.0,75,0.00,,,0.00,weatherlink.com 1.10,2013-01-14 03:09:00,
2013-01-14 05:24:00,50.8,44.0,30.22,NW,314,0.0,3.0,77,0.00,,,0.00,weatherlink.com 1.10,2013-01-14 03:24:00,
2013-01-14 05:39:00,51.3,44.0,30.23,SW,216,0.0,3.0,76,0.00,,,0.00,weatherlink.com 1.10,2013-01-14 03:39:00,
2013-01-14 05:54:00,50.7,44.0,30.23,WSW,244,0.0,2.0,77,0.00,,,0.00,weatherlink.com 1.10,2013-01-14 03:54:00,
2013-01-14 06:09:00,49.9,44.0,30.23,WSW,244,1.0,1.0,79,0.00,,,0.00,weatherlink.com 1.10,2013-01-14 04:09:00,
2013-01-14 06:24:00,50.0,44.0,30.23,WSW,244,0.0,0.0,79,0.00,,,0.00,weatherlink.com 1.10,2013-01-14 04:24:00,
2013-01-14 06:39:00,50.9,44.0,30.24,WSW,246,0.0,2.0,77,0.00,,,0.00,weatherlink.com 1.10,2013-01-14 04:39:00,
2013-01-14 06:54:00,49.2,44.0,30.25,WSW,246,0.0,0.0,82,0.00,,,0.00,weatherlink.com 1.10,2013-01-14 04:54:00,
2013-01-14 07:09:00,48.9,44.0,30.25,WSW,246,0.0,0.0,82,0.00,,,0.00,weatherlink.com 1.10,2013-01-14 05:09:00,
2013-01-14 07:24:00,49.5,44.0,30.25,WSW,246,0.0,1.0,81,0.00,,,0.00,weatherlink.com 1.10,2013-01-14 05:24:00,
2013-01-14 07:39:00,49.7,44.0,30.25,WSW,246,0.0,0.0,81,0.00,,,0.00,weatherlink.com 1.10,2013-01-14 05:39:00,
2013-01-14 07:54:00,50.4,44.0,30.25,WSW,248,0.0,2.0,79,0.00,,,0.00,weatherlink.com 1.10,2013-01-14 05:54:00,
2013-01-14 08:09:00,51.1,44.0,30.26,NW,313,0.0,3.0,77,0.00,,,0.00,weatherlink.com 1.10,2013-01-14 06:09:00,
2013-01-14 08:24:00,51.0,44.0,30.26,SSW,206,1.0,4.0,78,0.00,,,0.00,weatherlink.com 1.10,2013-01-14 06:24:00,
2013-01-14 08:39:00,51.2,45.0,30.26,NW,315,0.0,4.0,78,0.00,,,0.00,weatherlink.com 1.10,2013-01-14 06:39:00,
2013-01-14 08:54:00,51.7,45.0,30.27,WNW,299,1.0,11.0,78,0.00,,,0.00,weatherlink.com 1.10,2013-01-14 06:54:00,
2013-01-14 09:09:00,52.1,45.0,30.27,WNW,302,0.0,4.0,77,0.00,,,0.00,weatherlink.com 1.10,2013-01-14 07:09:00,
2013-01-14 09:24:00,53.0,45.0,30.27,South,177,1.0,7.0,75,0.00,,,0.00,weatherlink.com 1.10,2013-01-14 07:24:00,
2013-01-14 09:39:00,53.4,45.0,30.27,WSW,255,0.0,7.0,74,0.00,,,0.00,weatherlink.com 1.10,2013-01-14 07:39:00,
2013-01-14 09:54:00,53.2,45.0,30.27,South,180,2.0,8.0,74,0.00,,,0.00,weatherlink.com 1.10,2013-01-14 07:54:00,
2013-01-14 10:09:00,53.2,45.0,30.27,SSW,196,3.0,10.0,74,0.00,,,0.00,weatherlink.com 1.10,2013-01-14 08:09:00,
2013-01-14 10:24:00,53.2,45.0,30.27,SE,145,4.0,11.0,74,0.00,,,0.00,weatherlink.com 1.10,2013-01-14 08:24:00,
2013-01-14 10:39:00,53.4,45.0,30.27,SE,132,1.0,10.0,74,0.00,,,0.00,weatherlink.com 1.10,2013-01-14 08:39:00,
2013-01-14 10:54:00,53.7,46.0,30.27,SSE,150,0.0,8.0,75,0.00,,,0.00,weatherlink.com 1.10,2013-01-14 08:54:00,
2013-01-14 11:09:00,53.9,46.0,30.27,SE,145,2.0,11.0,75,0.00,,,0.00,weatherlink.com 1.10,2013-01-14 09:09:00,
2013-01-14 11:24:00,53.9,46.0,30.27,South,190,3.0,9.0,75,0.00,,,0.00,weatherlink.com 1.10,2013-01-14 09:24:00,
2013-01-14 11:39:00,53.9,46.0,30.26,SSE,155,8.0,11.0,75,0.00,,,0.00,weatherlink.com 1.10,2013-01-14 09:39:00,
2013-01-14 11:54:00,53.8,46.0,30.26,SE,124,4.0,11.0,76,0.00,,,0.00,weatherlink.com 1.10,2013-01-14 09:54:00,
2013-01-14 12:09:00,54.2,47.0,30.25,ESE,123,8.0,11.0,76,0.00,,,0.00,weatherlink.com 1.10,2013-01-14 10:09:00,
2013-01-14 12:25:00,54.4,47.0,30.25,East,86,3.0,11.0,75,0.00,,,0.00,weatherlink.com 1.10,2013-01-14 10:25:00,
2013-01-14 12:40:00,54.5,47.0,30.25,SSW,209,0.0,11.0,75,0.00,,,0.00,weatherlink.com 1.10,2013-01-14 10:40:00,
2013-01-14 12:55:00,54.5,47.0,30.24,SE,140,5.0,11.0,76,0.00,,,0.00,weatherlink.com 1.10,2013-01-14 10:55:00,
2013-01-14 13:10:00,54.8,47.0,30.24,SSE,148,4.0,12.0,76,0.00,,,0.00,weatherlink.com 1.10,2013-01-14 11:10:00,
2013-01-14 13:25:00,55.2,47.0,30.23,SSW,212,2.0,11.0,75,0.00,,,0.00,weatherlink.com 1.10,2013-01-14 11:25:00,
2013-01-14 13:40:00,55.6,48.0,30.23,SE,138,2.0,12.0,75,0.00,,,0.00,weatherlink.com 1.10,2013-01-14 11:40:00,
2013-01-14 13:55:00,55.5,48.0,30.24,SE,146,7.0,14.0,75,0.00,,,0.00,weatherlink.com 1.10,2013-01-14 11:55:00,
2013-01-14 14:10:00,55.8,48.0,30.24,SE,145,7.0,13.0,76,0.00,,,0.00,weatherlink.com 1.10,2013-01-14 12:10:00,
2013-01-14 14:25:00,56.9,49.0,30.24,South,180,6.0,11.0,74,0.00,,,0.00,weatherlink.com 1.10,2013-01-14 12:25:00,
2013-01-14 14:40:00,56.5,49.0,30.24,SSW,209,5.0,11.0,75,0.00,,,0.00,weatherlink.com 1.10,2013-01-14 12:40:00,
2013-01-14 14:55:00,56.6,49.0,30.24,SE,144,6.0,11.0,75,0.00,,,0.00,weatherlink.com 1.10,2013-01-14 12:55:00,
2013-01-14 15:10:00,56.8,49.0,30.24,SSE,168,8.0,15.0,76,0.00,,,0.00,weatherlink.com 1.10,2013-01-14 13:10:00,
2013-01-14 15:25:00,56.6,49.0,30.24,SSE,148,7.0,13.0,76,0.00,,,0.00,weatherlink.com 1.10,2013-01-14 13:25:00,
2013-01-14 15:40:00,56.7,49.0,30.24,SSE,164,5.0,12.0,75,0.00,,,0.00,weatherlink.com 1.10,2013-01-14 13:40:00,
2013-01-14 15:55:00,56.8,49.0,30.24,SSW,192,1.0,9.0,75,0.00,,,0.00,weatherlink.com 1.10,2013-01-14 13:55:00,
2013-01-14 16:10:00,56.7,47.0,30.25,West,259,3.0,10.0,71,0.00,,,0.00,weatherlink.com 1.10,2013-01-14 14:10:00,
2013-01-14 16:25:00,56.2,48.0,30.25,South,171,2.0,9.0,74,0.00,,,0.00,weatherlink.com 1.10,2013-01-14 14:25:00,
2013-01-14 16:40:00,56.1,48.0,30.24,SSE,163,4.0,7.0,73,0.00,,,0.00,weatherlink.com 1.10,2013-01-14 14:40:00,
2013-01-14 16:55:00,56.1,48.0,30.24,South,183,2.0,10.0,73,0.00,,,0.00,weatherlink.com 1.10,2013-01-14 14:55:00,
2013-01-14 17:10:00,55.8,48.0,30.24,SSE,154,1.0,7.0,74,0.00,,,0.00,weatherlink.com 1.10,2013-01-14 15:10:00,
2013-01-14 17:25:00,55.7,46.0,30.24,WSW,239,4.0,7.0,69,0.00,,,0.00,weatherlink.com 1.10,2013-01-14 15:25:00,
2013-01-14 17:42:00,55.5,44.0,30.24,SSE,149,3.0,7.0,66,0.00,,,0.00,weatherlink.com 1.10,2013-01-14 15:42:00,
2013-01-14 17:55:00,55.1,44.0,30.25,SSW,208,2.0,8.0,66,0.00,,,0.00,weatherlink.com 1.10,2013-01-14 15:55:00,
2013-01-14 18:10:00,54.8,43.0,30.25,SSE,167,2.0,11.0,64,0.00,,,0.00,weatherlink.com 1.10,2013-01-14 16:10:00,
2013-01-14 18:25:00,54.9,43.0,30.25,SSE,152,1.0,9.0,65,0.00,,,0.00,weatherlink.com 1.10,2013-01-14 16:25:00,
2013-01-14 18:40:00,54.9,44.0,30.25,South,188,2.0,8.0,68,0.00,,,0.00,weatherlink.com 1.10,2013-01-14 16:40:00,
2013-01-14 18:55:00,54.8,45.0,30.25,SSW,203,3.0,8.0,70,0.00,,,0.00,weatherlink.com 1.10,2013-01-14 16:55:00,
2013-01-14 19:10:00,54.9,46.0,30.25,SSW,196,1.0,7.0,72,0.00,,,0.00,weatherlink.com 1.10,2013-01-14 17:10:00,
2013-01-14 19:25:00,54.7,47.0,30.25,South,177,1.0,5.0,74,0.00,,,0.00,weatherlink.com 1.10,2013-01-14 17:25:00,
2013-01-14 19:40:00,54.5,47.0,30.25,SSW,208,2.0,5.0,75,0.00,,,0.00,weatherlink.com 1.10,2013-01-14 17:40:00,
2013-01-14 19:55:00,54.4,47.0,30.25,SW,228,1.0,6.0,77,0.00,,,0.00,weatherlink.com 1.10,2013-01-14 17:55:00,
2013-01-14 20:10:00,54.5,48.0,30.25,SSE,150,3.0,7.0,78,0.00,,,0.00,weatherlink.com 1.10,2013-01-14 18:10:00,
2013-01-14 20:25:00,54.6,48.0,30.25,SSE,153,2.0,6.0,78,0.00,,,0.00,weatherlink.com 1.10,2013-01-14 18:25:00,
2013-01-14 20:40:00,54.3,48.0,30.25,SE,130,7.0,9.0,80,0.00,,,0.00,weatherlink.com 1.10,2013-01-14 18:40:00,
2013-01-14 20:55:00,54.6,48.0,30.24,SE,145,5.0,10.0,78,0.00,,,0.00,weatherlink.com 1.10,2013-01-14 18:55:00,
2013-01-14 21:10:00,54.1,47.0,30.24,SSW,202,2.0,8.0,78,0.00,,,0.00,weatherlink.com 1.10,2013-01-14 19:10:00,
2013-01-14 21:25:00,54.1,47.0,30.25,SW,234,5.0,7.0,77,0.00,,,0.00,weatherlink.com 1.10,2013-01-14 19:25:00,
2013-01-14 21:40:00,54.2,47.0,30.25,SW,218,3.0,7.0,76,0.00,,,0.00,weatherlink.com 1.10,2013-01-14 19:40:00,
2013-01-14 21:55:00,54.1,47.0,30.25,SSW,213,0.0,4.0,77,0.00,,,0.00,weatherlink.com 1.10,2013-01-14 19:55:00,
2013-01-14 22:25:00,53.4,47.0,30.25,SE,140,6.0,7.0,80,0.00,,,0.00,weatherlink.com 1.10,2013-01-14 20:25:00,
2013-01-14 22:40:00,53.5,48.0,30.25,SSE,157,2.0,8.0,80,0.00,,,0.00,weatherlink.com 1.10,2013-01-14 20:40:00,
2013-01-14 22:55:00,53.7,48.0,30.25,SSE,165,2.0,7.0,81,0.00,,,0.00,weatherlink.com 1.10,2013-01-14 20:55:00,
2013-01-14 23:10:00,53.9,48.0,30.26,SSE,153,0.0,8.0,81,0.00,,,0.00,weatherlink.com 1.10,2013-01-14 21:10:00,
2013-01-14 23:25:00,53.7,48.0,30.26,SE,145,1.0,8.0,82,0.00,,,0.00,weatherlink.com 1.10,2013-01-14 21:25:00,
2013-01-14 23:40:00,53.9,49.0,30.26,SW,217,2.0,7.0,82,0.00,,,0.00,weatherlink.com 1.10,2013-01-14 21:40:00,
2013-01-14 23:55:00,53.7,48.0,30.26,South,174,0.0,5.0,82,0.00,,,0.00,weatherlink.com 1.10,2013-01-14 21:55:00,